sensor_id;sensor_type;location;lat;lon;timestamp;pressure;altitude;pressure_sealevel;temperature;humidity
10518;BME280;5307;42.548;22.968;2023-06-26T00:01:42;93671.47;;;19.08;100.00
10518;BME280;5307;42.548;22.968;2023-06-26T00:04:09;93670.19;;;19.20;100.00
10518;BME280;5307;42.548;22.968;2023-06-26T00:06:40;93672.47;;;19.11;100.00
10518;BME280;5307;42.548;22.968;2023-06-26T00:09:07;93660.59;;;19.27;100.00
10518;BME280;5307;42.548;22.968;2023-06-26T00:11:34;93672.94;;;19.32;100.00
10518;BME280;5307;42.548;22.968;2023-06-26T00:14:01;93672.72;;;19.18;100.00
10518;BME280;5307;42.548;22.968;2023-06-26T00:16:29;93680.53;;;19.09;100.00
10518;BME280;5307;42.548;22.968;2023-06-26T00:18:56;93667.97;;;19.08;100.00
10518;BME280;5307;42.548;22.968;2023-06-26T00:21:24;93665.44;;;19.10;100.00
10518;BME280;5307;42.548;22.968;2023-06-26T00:23:53;93669.72;;;19.16;100.00
10518;BME280;5307;42.548;22.968;2023-06-26T00:26:20;93670.25;;;18.98;100.00
10518;BME280;5307;42.548;22.968;2023-06-26T00:28:46;93672.22;;;19.09;100.00
10518;BME280;5307;42.548;22.968;2023-06-26T00:31:13;93668.22;;;19.15;100.00
10518;BME280;5307;42.548;22.968;2023-06-26T00:33:42;93668.16;;;19.26;100.00
10518;BME280;5307;42.548;22.968;2023-06-26T00:36:08;93659.84;;;19.26;100.00
10518;BME280;5307;42.548;22.968;2023-06-26T00:38:35;93653.25;;;19.46;100.00
10518;BME280;5307;42.548;22.968;2023-06-26T00:41:02;93663.59;;;19.35;100.00
10518;BME280;5307;42.548;22.968;2023-06-26T00:43:29;93654.28;;;19.38;100.00
10518;BME280;5307;42.548;22.968;2023-06-26T00:45:56;93658.78;;;19.46;100.00
10518;BME280;5307;42.548;22.968;2023-06-26T00:48:25;93662.28;;;19.52;100.00
10518;BME280;5307;42.548;22.968;2023-06-26T00:50:54;93653.03;;;19.27;100.00
10518;BME280;5307;42.548;22.968;2023-06-26T00:53:21;93665.06;;;19.41;100.00
10518;BME280;5307;42.548;22.968;2023-06-26T00:55:48;93665.69;;;19.12;100.00
10518;BME280;5307;42.548;22.968;2023-06-26T00:58:15;93660.88;;;19.29;100.00
10518;BME280;5307;42.548;22.968;2023-06-26T01:00:42;93655.84;;;19.22;100.00
10518;BME280;5307;42.548;22.968;2023-06-26T01:03:11;93655.88;;;19.11;100.00
10518;BME280;5307;42.548;22.968;2023-06-26T01:05:38;93664.19;;;18.99;100.00
10518;BME280;5307;42.548;22.968;2023-06-26T01:08:07;93652.84;;;19.09;100.00
10518;BME280;5307;42.548;22.968;2023-06-26T01:10:35;93639.53;;;19.07;100.00
10518;BME280;5307;42.548;22.968;2023-06-26T01:13:02;93645.50;;;19.28;100.00
10518;BME280;5307;42.548;22.968;2023-06-26T01:15:29;93628.38;;;19.30;100.00
10518;BME280;5307;42.548;22.968;2023-06-26T01:17:57;93623.41;;;19.17;100.00
10518;BME280;5307;42.548;22.968;2023-06-26T01:20:29;93623.94;;;19.04;100.00
10518;BME280;5307;42.548;22.968;2023-06-26T01:23:03;93613.59;;;19.16;100.00
10518;BME280;5307;42.548;22.968;2023-06-26T01:25:50;93624.16;;;19.12;100.00
10518;BME280;5307;42.548;22.968;2023-06-26T01:28:23;93627.13;;;19.25;100.00
10518;BME280;5307;42.548;22.968;2023-06-26T01:30:51;93622.13;;;19.18;100.00
10518;BME280;5307;42.548;22.968;2023-06-26T01:33:18;93614.88;;;19.04;100.00
10518;BME280;5307;42.548;22.968;2023-06-26T01:35:45;93602.81;;;19.01;100.00
10518;BME280;5307;42.548;22.968;2023-06-26T01:38:14;93609.84;;;19.08;100.00
10518;BME280;5307;42.548;22.968;2023-06-26T01:40:41;93611.16;;;18.90;100.00
10518;BME280;5307;42.548;22.968;2023-06-26T01:43:15;93615.59;;;19.10;100.00
10518;BME280;5307;42.548;22.968;2023-06-26T01:45:49;93621.94;;;18.93;100.00
10518;BME280;5307;42.548;22.968;2023-06-26T01:48:20;93619.44;;;18.90;100.00
10518;BME280;5307;42.548;22.968;2023-06-26T01:50:51;93613.66;;;18.93;100.00
10518;BME280;5307;42.548;22.968;2023-06-26T01:53:21;93601.38;;;18.78;100.00
10518;BME280;5307;42.548;22.968;2023-06-26T01:55:52;93613.97;;;18.73;100.00
10518;BME280;5307;42.548;22.968;2023-06-26T01:58:22;93602.88;;;18.67;100.00
10518;BME280;5307;42.548;22.968;2023-06-26T02:00:52;93600.63;;;18.66;100.00
10518;BME280;5307;42.548;22.968;2023-06-26T02:03:19;93599.13;;;18.54;100.00
10518;BME280;5307;42.548;22.968;2023-06-26T02:18:49;93600.38;;;18.75;100.00
10518;BME280;5307;42.548;22.968;2023-06-26T02:21:17;93602.38;;;18.80;100.00
10518;BME280;5307;42.548;22.968;2023-06-26T02:23:43;93604.09;;;18.83;100.00
10518;BME280;5307;42.548;22.968;2023-06-26T02:26:10;93605.38;;;18.82;100.00
10518;BME280;5307;42.548;22.968;2023-06-26T02:28:37;93600.88;;;18.74;100.00
10518;BME280;5307;42.548;22.968;2023-06-26T02:31:04;93612.41;;;18.83;100.00
10518;BME280;5307;42.548;22.968;2023-06-26T02:33:31;93612.19;;;18.76;100.00
10518;BME280;5307;42.548;22.968;2023-06-26T02:35:59;93611.19;;;18.73;100.00
10518;BME280;5307;42.548;22.968;2023-06-26T02:38:26;93622.75;;;18.72;100.00
10518;BME280;5307;42.548;22.968;2023-06-26T02:40:53;93608.44;;;18.73;100.00
10518;BME280;5307;42.548;22.968;2023-06-26T02:43:20;93618.22;;;18.74;100.00
10518;BME280;5307;42.548;22.968;2023-06-26T02:45:46;93623.25;;;18.70;100.00
10518;BME280;5307;42.548;22.968;2023-06-26T02:48:13;93610.44;;;18.39;100.00
10518;BME280;5307;42.548;22.968;2023-06-26T02:50:40;93610.69;;;18.35;100.00
10518;BME280;5307;42.548;22.968;2023-06-26T02:53:08;93618.72;;;18.39;100.00
10518;BME280;5307;42.548;22.968;2023-06-26T02:55:35;93618.50;;;18.09;100.00
10518;BME280;5307;42.548;22.968;2023-06-26T02:58:02;93621.53;;;18.17;100.00
10518;BME280;5307;42.548;22.968;2023-06-26T03:00:28;93618.75;;;18.11;100.00
10518;BME280;5307;42.548;22.968;2023-06-26T03:02:55;93624.03;;;18.31;100.00
10518;BME280;5307;42.548;22.968;2023-06-26T03:05:22;93621.50;;;18.28;100.00
10518;BME280;5307;42.548;22.968;2023-06-26T03:07:49;93625.28;;;18.30;100.00
10518;BME280;5307;42.548;22.968;2023-06-26T03:10:17;93624.78;;;18.26;100.00
10518;BME280;5307;42.548;22.968;2023-06-26T03:12:44;93631.53;;;18.42;100.00
10518;BME280;5307;42.548;22.968;2023-06-26T03:15:11;93624.00;;;18.43;100.00
10518;BME280;5307;42.548;22.968;2023-06-26T03:17:38;93627.53;;;18.37;100.00
10518;BME280;5307;42.548;22.968;2023-06-26T03:20:05;93616.72;;;18.39;100.00
10518;BME280;5307;42.548;22.968;2023-06-26T03:22:32;93620.75;;;18.33;100.00
10518;BME280;5307;42.548;22.968;2023-06-26T03:24:59;93622.00;;;18.21;100.00
10518;BME280;5307;42.548;22.968;2023-06-26T03:27:27;93624.78;;;18.26;100.00
10518;BME280;5307;42.548;22.968;2023-06-26T03:29:54;93624.03;;;18.20;100.00
10518;BME280;5307;42.548;22.968;2023-06-26T03:32:21;93630.31;;;18.32;100.00
10518;BME280;5307;42.548;22.968;2023-06-26T03:34:48;93628.81;;;18.31;100.00
10518;BME280;5307;42.548;22.968;2023-06-26T03:37:15;93636.06;;;18.28;100.00
10518;BME280;5307;42.548;22.968;2023-06-26T03:39:41;93634.56;;;18.22;100.00
10518;BME280;5307;42.548;22.968;2023-06-26T03:42:08;93638.09;;;18.45;100.00
10518;BME280;5307;42.548;22.968;2023-06-26T03:44:36;93643.63;;;18.28;100.00
10518;BME280;5307;42.548;22.968;2023-06-26T03:47:03;93639.09;;;18.19;100.00
10518;BME280;5307;42.548;22.968;2023-06-26T03:49:30;93638.09;;;18.22;100.00
10518;BME280;5307;42.548;22.968;2023-06-26T03:51:59;93635.84;;;18.37;100.00
10518;BME280;5307;42.548;22.968;2023-06-26T03:54:26;93642.13;;;18.32;100.00
10518;BME280;5307;42.548;22.968;2023-06-26T03:56:53;93644.13;;;18.37;100.00
10518;BME280;5307;42.548;22.968;2023-06-26T03:59:21;93646.38;;;18.39;100.00
10518;BME280;5307;42.548;22.968;2023-06-26T04:01:49;93644.38;;;18.34;100.00
10518;BME280;5307;42.548;22.968;2023-06-26T04:04:16;93641.59;;;18.39;100.00
10518;BME280;5307;42.548;22.968;2023-06-26T04:06:43;93636.59;;;18.60;100.00
10518;BME280;5307;42.548;22.968;2023-06-26T04:09:09;93633.81;;;18.66;100.00
10518;BME280;5307;42.548;22.968;2023-06-26T04:11:36;93646.41;;;18.73;100.00
10518;BME280;5307;42.548;22.968;2023-06-26T04:14:03;93646.63;;;18.80;100.00
10518;BME280;5307;42.548;22.968;2023-06-26T04:16:30;93637.09;;;18.76;100.00
10518;BME280;5307;42.548;22.968;2023-06-26T04:18:58;93641.06;;;18.97;100.00
10518;BME280;5307;42.548;22.968;2023-06-26T04:21:25;93639.03;;;19.14;100.00
10518;BME280;5307;42.548;22.968;2023-06-26T04:23:51;93646.25;;;19.34;100.00
10518;BME280;5307;42.548;22.968;2023-06-26T04:26:18;93642.16;;;19.46;100.00
10518;BME280;5307;42.548;22.968;2023-06-26T04:28:45;93638.59;;;19.63;100.00
10518;BME280;5307;42.548;22.968;2023-06-26T04:31:12;93642.34;;;19.65;100.00
10518;BME280;5307;42.548;22.968;2023-06-26T04:33:39;93641.13;;;19.49;100.00
10518;BME280;5307;42.548;22.968;2023-06-26T04:36:07;93640.09;;;19.52;100.00
10518;BME280;5307;42.548;22.968;2023-06-26T04:38:34;93641.25;;;19.79;100.00
10518;BME280;5307;42.548;22.968;2023-06-26T04:41:01;93638.78;;;20.11;100.00
10518;BME280;5307;42.548;22.968;2023-06-26T04:43:28;93636.50;;;20.15;100.00
10518;BME280;5307;42.548;22.968;2023-06-26T04:45:55;93638.53;;;20.15;100.00
10518;BME280;5307;42.548;22.968;2023-06-26T04:48:21;93638.34;;;20.37;100.00
10518;BME280;5307;42.548;22.968;2023-06-26T04:50:48;93635.91;;;20.28;100.00
10518;BME280;5307;42.548;22.968;2023-06-26T04:53:21;93630.56;;;20.36;100.00
10518;BME280;5307;42.548;22.968;2023-06-26T04:55:49;93632.28;;;20.44;99.82
10518;BME280;5307;42.548;22.968;2023-06-26T04:58:16;93635.84;;;20.94;98.13
10518;BME280;5307;42.548;22.968;2023-06-26T05:00:43;93634.31;;;20.98;95.01
10518;BME280;5307;42.548;22.968;2023-06-26T05:03:15;93621.13;;;21.29;93.27
10518;BME280;5307;42.548;22.968;2023-06-26T05:05:42;93631.69;;;21.55;89.25
10518;BME280;5307;42.548;22.968;2023-06-26T05:08:16;93633.84;;;21.62;87.75
10518;BME280;5307;42.548;22.968;2023-06-26T05:10:45;93635.28;;;21.87;86.54
10518;BME280;5307;42.548;22.968;2023-06-26T05:13:12;93634.38;;;21.79;86.10
10518;BME280;5307;42.548;22.968;2023-06-26T05:15:42;93633.19;;;21.93;85.14
10518;BME280;5307;42.548;22.968;2023-06-26T05:18:10;93636.50;;;21.92;84.87
10518;BME280;5307;42.548;22.968;2023-06-26T05:20:37;93636.88;;;22.02;84.04
10518;BME280;5307;42.548;22.968;2023-06-26T05:23:07;93638.03;;;22.12;85.15
10518;BME280;5307;42.548;22.968;2023-06-26T05:25:35;93632.97;;;21.91;82.09
10518;BME280;5307;42.548;22.968;2023-06-26T05:28:04;93643.59;;;22.44;80.96
10518;BME280;5307;42.548;22.968;2023-06-26T05:30:32;93633.88;;;22.00;80.02
10518;BME280;5307;42.548;22.968;2023-06-26T05:33:01;93646.16;;;22.74;79.00
10518;BME280;5307;42.548;22.968;2023-06-26T05:35:30;93633.69;;;22.30;78.77
10518;BME280;5307;42.548;22.968;2023-06-26T05:37:57;93646.06;;;22.47;78.67
10518;BME280;5307;42.548;22.968;2023-06-26T05:40:25;93647.00;;;23.14;76.69
10518;BME280;5307;42.548;22.968;2023-06-26T05:42:52;93651.34;;;22.83;78.15
10518;BME280;5307;42.548;22.968;2023-06-26T05:45:20;93651.28;;;23.15;76.54
10518;BME280;5307;42.548;22.968;2023-06-26T05:47:47;93651.50;;;23.17;78.45
10518;BME280;5307;42.548;22.968;2023-06-26T05:50:18;93652.47;;;22.74;77.47
10518;BME280;5307;42.548;22.968;2023-06-26T05:52:46;93654.91;;;22.65;77.31
10518;BME280;5307;42.548;22.968;2023-06-26T05:55:14;93663.56;;;22.93;77.70
10518;BME280;5307;42.548;22.968;2023-06-26T05:57:41;93655.84;;;22.86;78.75
10518;BME280;5307;42.548;22.968;2023-06-26T06:00:09;93656.41;;;22.34;78.58
10518;BME280;5307;42.548;22.968;2023-06-26T06:02:38;93658.66;;;22.35;80.76
10518;BME280;5307;42.548;22.968;2023-06-26T06:05:06;93660.56;;;22.27;81.09
10518;BME280;5307;42.548;22.968;2023-06-26T06:07:33;93661.22;;;21.96;82.33
10518;BME280;5307;42.548;22.968;2023-06-26T06:10:00;93658.22;;;22.31;82.38
10518;BME280;5307;42.548;22.968;2023-06-26T06:12:27;93656.19;;;22.64;79.05
10518;BME280;5307;42.548;22.968;2023-06-26T06:14:55;93652.91;;;23.10;79.34
10518;BME280;5307;42.548;22.968;2023-06-26T06:17:22;93650.41;;;23.07;75.10
10518;BME280;5307;42.548;22.968;2023-06-26T06:19:50;93646.47;;;23.42;72.77
10518;BME280;5307;42.548;22.968;2023-06-26T06:22:17;93647.09;;;23.08;72.24
10518;BME280;5307;42.548;22.968;2023-06-26T06:24:44;93642.59;;;23.45;72.28
10518;BME280;5307;42.548;22.968;2023-06-26T06:27:11;93638.59;;;23.93;71.20
10518;BME280;5307;42.548;22.968;2023-06-26T06:29:38;93635.38;;;24.37;70.35
10518;BME280;5307;42.548;22.968;2023-06-26T06:32:06;93637.56;;;23.83;69.33
10518;BME280;5307;42.548;22.968;2023-06-26T06:34:33;93639.38;;;23.15;71.85
10518;BME280;5307;42.548;22.968;2023-06-26T06:37:02;93644.06;;;22.93;73.35
10518;BME280;5307;42.548;22.968;2023-06-26T06:39:29;93643.03;;;23.09;73.23
10518;BME280;5307;42.548;22.968;2023-06-26T06:41:55;93639.72;;;22.79;72.38
10518;BME280;5307;42.548;22.968;2023-06-26T06:44:22;93647.09;;;22.31;72.30
10518;BME280;5307;42.548;22.968;2023-06-26T06:46:49;93644.56;;;22.46;72.85
10518;BME280;5307;42.548;22.968;2023-06-26T06:49:16;93642.63;;;22.41;72.05
10518;BME280;5307;42.548;22.968;2023-06-26T06:51:43;93641.44;;;23.27;71.42
10518;BME280;5307;42.548;22.968;2023-06-26T06:54:11;93638.84;;;23.43;70.40
10518;BME280;5307;42.548;22.968;2023-06-26T06:56:37;93634.56;;;23.81;72.00
10518;BME280;5307;42.548;22.968;2023-06-26T06:59:04;93639.63;;;23.69;69.97
10518;BME280;5307;42.548;22.968;2023-06-26T07:01:31;93639.41;;;23.28;71.34
10518;BME280;5307;42.548;22.968;2023-06-26T07:03:58;93634.22;;;23.19;71.09
10518;BME280;5307;42.548;22.968;2023-06-26T07:06:25;93630.25;;;22.88;72.47
10518;BME280;5307;42.548;22.968;2023-06-26T07:08:52;93630.78;;;23.79;70.50
10518;BME280;5307;42.548;22.968;2023-06-26T07:11:20;93634.22;;;23.85;68.48
10518;BME280;5307;42.548;22.968;2023-06-26T07:13:47;93632.75;;;23.57;68.87
10518;BME280;5307;42.548;22.968;2023-06-26T07:16:14;93635.84;;;23.27;68.43
10518;BME280;5307;42.548;22.968;2023-06-26T07:18:40;93626.09;;;23.34;69.18
10518;BME280;5307;42.548;22.968;2023-06-26T07:21:09;93624.50;;;23.65;67.59
10518;BME280;5307;42.548;22.968;2023-06-26T07:23:35;93628.31;;;24.56;67.65
10518;BME280;5307;42.548;22.968;2023-06-26T07:26:02;93634.66;;;24.23;65.04
10518;BME280;5307;42.548;22.968;2023-06-26T07:28:30;93627.16;;;23.71;64.20
10518;BME280;5307;42.548;22.968;2023-06-26T07:30:57;93619.97;;;23.22;65.56
10518;BME280;5307;42.548;22.968;2023-06-26T07:33:24;93621.38;;;23.29;66.18
10518;BME280;5307;42.548;22.968;2023-06-26T07:35:50;93627.69;;;23.16;66.30
10518;BME280;5307;42.548;22.968;2023-06-26T07:38:17;93637.66;;;22.98;66.19
10518;BME280;5307;42.548;22.968;2023-06-26T07:40:44;93645.81;;;22.96;67.95
10518;BME280;5307;42.548;22.968;2023-06-26T07:43:11;93636.69;;;23.22;67.23
10518;BME280;5307;42.548;22.968;2023-06-26T07:45:39;93647.88;;;22.77;68.21
10518;BME280;5307;42.548;22.968;2023-06-26T07:48:06;93645.34;;;22.92;67.65
10518;BME280;5307;42.548;22.968;2023-06-26T07:50:33;93647.09;;;22.95;65.99
10518;BME280;5307;42.548;22.968;2023-06-26T07:52:59;93648.31;;;22.81;65.97
10518;BME280;5307;42.548;22.968;2023-06-26T07:55:26;93646.88;;;23.33;64.45
10518;BME280;5307;42.548;22.968;2023-06-26T07:57:53;93643.13;;;24.17;62.27
10518;BME280;5307;42.548;22.968;2023-06-26T08:00:20;93642.31;;;24.09;60.71
10518;BME280;5307;42.548;22.968;2023-06-26T08:02:48;93643.06;;;24.10;62.15
10518;BME280;5307;42.548;22.968;2023-06-26T08:05:15;93641.63;;;23.29;63.34
10518;BME280;5307;42.548;22.968;2023-06-26T08:07:42;93652.69;;;23.08;64.72
10518;BME280;5307;42.548;22.968;2023-06-26T08:10:10;93646.13;;;22.61;65.45
10518;BME280;5307;42.548;22.968;2023-06-26T08:12:36;93643.03;;;22.32;66.19
10518;BME280;5307;42.548;22.968;2023-06-26T08:15:06;93640.44;;;22.85;66.82
10518;BME280;5307;42.548;22.968;2023-06-26T08:17:33;93644.38;;;22.90;67.86
10518;BME280;5307;42.548;22.968;2023-06-26T08:20:02;93638.31;;;23.04;65.93
10518;BME280;5307;42.548;22.968;2023-06-26T08:22:29;93634.41;;;22.94;65.91
10518;BME280;5307;42.548;22.968;2023-06-26T08:24:55;93635.56;;;23.57;64.89
10518;BME280;5307;42.548;22.968;2023-06-26T08:27:22;93630.47;;;24.71;63.67
10518;BME280;5307;42.548;22.968;2023-06-26T08:29:49;93630.75;;;24.60;58.73
10518;BME280;5307;42.548;22.968;2023-06-26T08:32:16;93639.28;;;24.54;56.84
10518;BME280;5307;42.548;22.968;2023-06-26T08:34:43;93632.75;;;24.52;57.08
10518;BME280;5307;42.548;22.968;2023-06-26T08:37:11;93638.50;;;24.75;58.09
10518;BME280;5307;42.548;22.968;2023-06-26T08:39:37;93635.94;;;25.55;58.38
10518;BME280;5307;42.548;22.968;2023-06-26T08:42:05;93641.00;;;25.56;56.22
10518;BME280;5307;42.548;22.968;2023-06-26T08:44:32;93635.66;;;24.46;55.20
10518;BME280;5307;42.548;22.968;2023-06-26T08:46:59;93642.13;;;25.61;56.17
10518;BME280;5307;42.548;22.968;2023-06-26T08:49:32;93635.50;;;25.43;52.98
10518;BME280;5307;42.548;22.968;2023-06-26T08:52:05;93631.38;;;24.66;52.91
10518;BME280;5307;42.548;22.968;2023-06-26T08:54:38;93646.09;;;25.65;54.49
10518;BME280;5307;42.548;22.968;2023-06-26T08:57:07;93640.59;;;25.81;53.47
10518;BME280;5307;42.548;22.968;2023-06-26T08:59:34;93641.13;;;26.23;55.00
10518;BME280;5307;42.548;22.968;2023-06-26T09:02:01;93640.53;;;25.73;52.72
10518;BME280;5307;42.548;22.968;2023-06-26T09:04:29;93645.94;;;26.07;56.13
10518;BME280;5307;42.548;22.968;2023-06-26T09:06:56;93634.19;;;25.72;53.04
10518;BME280;5307;42.548;22.968;2023-06-26T09:09:23;93642.41;;;25.70;53.58
10518;BME280;5307;42.548;22.968;2023-06-26T09:11:51;93632.78;;;26.38;52.89
10518;BME280;5307;42.548;22.968;2023-06-26T09:14:18;93637.47;;;25.99;52.75
10518;BME280;5307;42.548;22.968;2023-06-26T09:16:45;93635.38;;;24.99;52.50
10518;BME280;5307;42.548;22.968;2023-06-26T09:19:12;93632.81;;;26.02;53.09
10518;BME280;5307;42.548;22.968;2023-06-26T09:21:40;93635.38;;;25.85;53.04
10518;BME280;5307;42.548;22.968;2023-06-26T09:24:07;93633.44;;;26.16;51.10
10518;BME280;5307;42.548;22.968;2023-06-26T09:26:35;93633.38;;;25.93;51.17
10518;BME280;5307;42.548;22.968;2023-06-26T09:29:04;93624.59;;;25.60;53.06
10518;BME280;5307;42.548;22.968;2023-06-26T09:31:31;93638.44;;;24.46;56.98
10518;BME280;5307;42.548;22.968;2023-06-26T09:33:59;93630.09;;;24.67;58.06
10518;BME280;5307;42.548;22.968;2023-06-26T09:36:28;93636.53;;;25.04;58.37
10518;BME280;5307;42.548;22.968;2023-06-26T09:38:58;93631.91;;;24.44;57.14
10518;BME280;5307;42.548;22.968;2023-06-26T09:41:25;93636.22;;;24.66;55.73
10518;BME280;5307;42.548;22.968;2023-06-26T09:43:52;93640.81;;;24.08;55.36
10518;BME280;5307;42.548;22.968;2023-06-26T09:46:26;93639.19;;;24.47;55.29
10518;BME280;5307;42.548;22.968;2023-06-26T09:48:58;93639.38;;;24.91;55.42
10518;BME280;5307;42.548;22.968;2023-06-26T09:51:25;93630.34;;;25.83;54.86
10518;BME280;5307;42.548;22.968;2023-06-26T09:53:52;93635.06;;;26.03;54.50
10518;BME280;5307;42.548;22.968;2023-06-26T09:56:19;93629.25;;;25.94;55.69
10518;BME280;5307;42.548;22.968;2023-06-26T09:59:04;93630.84;;;25.74;52.89
10518;BME280;5307;42.548;22.968;2023-06-26T10:01:32;93635.41;;;26.36;55.61
10518;BME280;5307;42.548;22.968;2023-06-26T10:03:59;93628.19;;;26.04;55.83
10518;BME280;5307;42.548;22.968;2023-06-26T10:06:28;93628.94;;;26.05;54.69
10518;BME280;5307;42.548;22.968;2023-06-26T10:09:00;93623.06;;;26.39;55.02
10518;BME280;5307;42.548;22.968;2023-06-26T10:11:33;93626.72;;;26.11;52.32
10518;BME280;5307;42.548;22.968;2023-06-26T10:14:03;93626.44;;;25.58;50.92
10518;BME280;5307;42.548;22.968;2023-06-26T10:16:33;93613.41;;;26.48;53.94
10518;BME280;5307;42.548;22.968;2023-06-26T10:19:05;93617.19;;;26.14;52.34
10518;BME280;5307;42.548;22.968;2023-06-26T10:21:34;93610.59;;;26.71;53.51
10518;BME280;5307;42.548;22.968;2023-06-26T10:24:05;93620.69;;;26.74;53.13
10518;BME280;5307;42.548;22.968;2023-06-26T10:26:35;93620.31;;;26.03;52.39
10518;BME280;5307;42.548;22.968;2023-06-26T10:29:04;93617.66;;;25.82;52.21
10518;BME280;5307;42.548;22.968;2023-06-26T10:31:34;93613.59;;;25.26;54.92
10518;BME280;5307;42.548;22.968;2023-06-26T10:34:02;93619.50;;;25.80;53.37
10518;BME280;5307;42.548;22.968;2023-06-26T10:36:31;93621.22;;;25.54;53.71
10518;BME280;5307;42.548;22.968;2023-06-26T10:39:05;93612.88;;;25.62;52.78
10518;BME280;5307;42.548;22.968;2023-06-26T10:41:41;93593.78;;;25.81;54.27
10518;BME280;5307;42.548;22.968;2023-06-26T10:44:09;93603.09;;;25.84;54.30
10518;BME280;5307;42.548;22.968;2023-06-26T10:46:58;93596.59;;;26.71;55.62
10518;BME280;5307;42.548;22.968;2023-06-26T10:49:25;93600.50;;;26.52;53.49
10518;BME280;5307;42.548;22.968;2023-06-26T10:51:52;93608.94;;;26.83;52.48
10518;BME280;5307;42.548;22.968;2023-06-26T10:54:21;93601.81;;;26.51;50.86
10518;BME280;5307;42.548;22.968;2023-06-26T10:56:49;93602.34;;;25.83;50.11
10518;BME280;5307;42.548;22.968;2023-06-26T10:59:17;93590.88;;;26.10;49.37
10518;BME280;5307;42.548;22.968;2023-06-26T11:01:46;93602.56;;;26.82;51.87
10518;BME280;5307;42.548;22.968;2023-06-26T11:04:14;93590.47;;;25.90;51.31
10518;BME280;5307;42.548;22.968;2023-06-26T11:06:45;93588.44;;;26.14;50.00
10518;BME280;5307;42.548;22.968;2023-06-26T11:09:17;93593.41;;;25.85;48.72
10518;BME280;5307;42.548;22.968;2023-06-26T11:11:59;93576.03;;;26.38;51.77
10518;BME280;5307;42.548;22.968;2023-06-26T11:14:31;93586.69;;;25.80;48.57
10518;BME280;5307;42.548;22.968;2023-06-26T11:16:59;93595.97;;;26.34;50.95
10518;BME280;5307;42.548;22.968;2023-06-26T11:19:29;93590.59;;;26.59;50.94
10518;BME280;5307;42.548;22.968;2023-06-26T11:22:04;93588.53;;;26.37;52.04
10518;BME280;5307;42.548;22.968;2023-06-26T11:24:31;93581.06;;;26.39;48.79
10518;BME280;5307;42.548;22.968;2023-06-26T11:27:02;93585.91;;;26.46;49.76
10518;BME280;5307;42.548;22.968;2023-06-26T11:29:31;93583.13;;;26.46;49.55
10518;BME280;5307;42.548;22.968;2023-06-26T11:32:00;93574.91;;;26.41;48.43
10518;BME280;5307;42.548;22.968;2023-06-26T11:34:31;93572.19;;;25.97;48.25
10518;BME280;5307;42.548;22.968;2023-06-26T11:36:58;93577.63;;;26.18;47.26
10518;BME280;5307;42.548;22.968;2023-06-26T11:39:26;93581.19;;;26.26;50.05
10518;BME280;5307;42.548;22.968;2023-06-26T11:41:53;93587.16;;;26.15;48.65
10518;BME280;5307;42.548;22.968;2023-06-26T11:44:21;93584.94;;;26.28;48.47
10518;BME280;5307;42.548;22.968;2023-06-26T11:46:51;93586.50;;;26.68;48.30
10518;BME280;5307;42.548;22.968;2023-06-26T11:49:21;93578.19;;;26.09;46.44
10518;BME280;5307;42.548;22.968;2023-06-26T11:51:50;93575.56;;;26.11;49.52
10518;BME280;5307;42.548;22.968;2023-06-26T11:54:23;93580.03;;;25.98;46.77
10518;BME280;5307;42.548;22.968;2023-06-26T11:56:54;93582.72;;;25.39;47.25
10518;BME280;5307;42.548;22.968;2023-06-26T11:59:23;93593.50;;;25.64;48.36
10518;BME280;5307;42.548;22.968;2023-06-26T12:01:50;93571.75;;;25.85;46.58
10518;BME280;5307;42.548;22.968;2023-06-26T12:04:18;93575.72;;;25.97;48.73
10518;BME280;5307;42.548;22.968;2023-06-26T12:06:47;93579.09;;;25.96;46.34
10518;BME280;5307;42.548;22.968;2023-06-26T12:09:17;93577.22;;;25.98;47.91
10518;BME280;5307;42.548;22.968;2023-06-26T12:11:46;93560.53;;;26.44;48.27
10518;BME280;5307;42.548;22.968;2023-06-26T12:14:14;93584.63;;;26.70;48.32
10518;BME280;5307;42.548;22.968;2023-06-26T12:16:42;93574.47;;;26.29;48.44
10518;BME280;5307;42.548;22.968;2023-06-26T12:19:09;93570.50;;;25.94;47.37
10518;BME280;5307;42.548;22.968;2023-06-26T12:21:47;93571.72;;;25.70;48.26
10518;BME280;5307;42.548;22.968;2023-06-26T12:24:19;93570.94;;;26.21;49.89
10518;BME280;5307;42.548;22.968;2023-06-26T12:26:50;93576.31;;;26.11;48.86
10518;BME280;5307;42.548;22.968;2023-06-26T12:29:20;93565.06;;;25.88;48.82
10518;BME280;5307;42.548;22.968;2023-06-26T12:31:50;93569.13;;;26.46;50.78
10518;BME280;5307;42.548;22.968;2023-06-26T12:34:19;93570.88;;;25.98;47.58
10518;BME280;5307;42.548;22.968;2023-06-26T12:36:47;93568.69;;;26.27;49.96
10518;BME280;5307;42.548;22.968;2023-06-26T12:39:16;93568.22;;;26.51;47.76
10518;BME280;5307;42.548;22.968;2023-06-26T12:41:48;93580.19;;;25.49;48.35
10518;BME280;5307;42.548;22.968;2023-06-26T12:44:19;93575.53;;;26.03;48.43
10518;BME280;5307;42.548;22.968;2023-06-26T12:46:47;93571.84;;;26.16;49.84
10518;BME280;5307;42.548;22.968;2023-06-26T12:49:14;93572.28;;;25.68;48.63
10518;BME280;5307;42.548;22.968;2023-06-26T12:51:41;93568.97;;;25.85;49.18
10518;BME280;5307;42.548;22.968;2023-06-26T12:54:09;93578.09;;;25.78;49.57
10518;BME280;5307;42.548;22.968;2023-06-26T12:56:36;93575.34;;;25.93;48.64
10518;BME280;5307;42.548;22.968;2023-06-26T12:59:04;93576.66;;;25.92;50.38
10518;BME280;5307;42.548;22.968;2023-06-26T13:01:31;93583.84;;;25.36;47.64
10518;BME280;5307;42.548;22.968;2023-06-26T13:03:58;93570.41;;;25.35;50.17
10518;BME280;5307;42.548;22.968;2023-06-26T13:06:24;93578.00;;;25.27;48.89
10518;BME280;5307;42.548;22.968;2023-06-26T13:08:51;93582.94;;;25.13;48.87
10518;BME280;5307;42.548;22.968;2023-06-26T13:11:19;93575.50;;;25.80;48.54
10518;BME280;5307;42.548;22.968;2023-06-26T13:13:46;93574.09;;;25.66;48.95
10518;BME280;5307;42.548;22.968;2023-06-26T13:16:15;93565.38;;;25.69;49.06